Time;durP1;ratioP1;P1;durP2;ratioP2;P2;SDS_P1;SDS_P2;PMS_P1;PMS_P2;Temp;Humidity;BMP_temperature;BMP_pressure;BME280_temperature;BME280_humidity;BME280_pressure;Samples;Min_cycle;Max_cycle;Signal;HPM_P1;HPM_P2
2023/06/22 00:02:06;;;;;;;2.08;1.30;;;;;;;;;;5093188;28;20031;-61
2023/06/22 00:04:33;;;;;;;2.50;1.52;;;;;;;;;;5093625;28;20024;-61
2023/06/22 00:06:59;;;;;;;1.55;1.25;;;;;;;;;;5093416;28;20088;-61
2023/06/22 00:09:26;;;;;;;2.72;1.73;;;;;;;;;;5093569;28;20034;-60
2023/06/22 00:11:53;;;;;;;4.93;2.72;;;;;;;;;;5093294;28;20024;-61
2023/06/22 00:14:20;;;;;;;4.88;2.70;;;;;;;;;;5087932;28;20031;-61
2023/06/22 00:16:48;;;;;;;3.10;1.85;;;;;;;;;;5088194;28;20047;-61
2023/06/22 00:19:16;;;;;;;7.63;2.42;;;;;;;;;;5087662;28;20036;-61
2023/06/22 00:21:42;;;;;;;13.13;1.88;;;;;;;;;;5087957;28;20028;-61
2023/06/22 00:24:09;;;;;;;2.55;1.58;;;;;;;;;;5091991;28;20548;-60
2023/06/22 00:26:36;;;;;;;15.60;2.42;;;;;;;;;;5093234;28;20060;-61
2023/06/22 00:29:03;;;;;;;3.58;1.67;;;;;;;;;;5092953;28;20081;-61
2023/06/22 00:31:29;;;;;;;2.60;1.55;;;;;;;;;;5092898;28;20370;-60
2023/06/22 00:33:56;;;;;;;2.63;1.80;;;;;;;;;;5092086;28;20024;-62
2023/06/22 00:36:24;;;;;;;1.98;1.50;;;;;;;;;;5088533;28;20426;-62
2023/06/22 00:38:51;;;;;;;3.03;1.73;;;;;;;;;;5087695;28;20296;-61
2023/06/22 00:41:18;;;;;;;12.48;2.45;;;;;;;;;;5087539;28;20024;-61
2023/06/22 00:43:46;;;;;;;3.75;1.58;;;;;;;;;;5087739;28;20403;-61
2023/06/22 00:46:12;;;;;;;2.67;1.83;;;;;;;;;;5090049;28;20031;-61
2023/06/22 00:48:41;;;;;;;2.10;1.45;;;;;;;;;;5092609;28;20048;-60
2023/06/22 00:51:08;;;;;;;2.47;1.60;;;;;;;;;;5092044;28;20076;-61
2023/06/22 00:53:36;;;;;;;5.90;1.58;;;;;;;;;;5092896;28;20103;-61
2023/06/22 00:56:04;;;;;;;2.38;1.77;;;;;;;;;;5092906;28;20039;-60
2023/06/22 00:58:31;;;;;;;1.88;1.45;;;;;;;;;;5089634;28;20501;-60
2023/06/22 01:00:58;;;;;;;3.47;2.00;;;;;;;;;;5087153;28;20042;-60
2023/06/22 01:03:24;;;;;;;2.35;1.60;;;;;;;;;;5087354;28;20031;-60
2023/06/22 01:05:52;;;;;;;3.10;2.00;;;;;;;;;;5087053;28;20074;-60
2023/06/22 01:08:19;;;;;;;4.80;2.03;;;;;;;;;;5089369;28;20020;-60
2023/06/22 01:10:51;;;;;;;2.75;1.50;;;;;;;;;;5092166;28;20101;-60
2023/06/22 01:13:23;;;;;;;4.32;2.13;;;;;;;;;;5092290;28;20028;-61
2023/06/22 01:16:01;;;;;;;4.00;2.55;;;;;;;;;;5092633;28;20027;-60
2023/06/22 01:18:29;;;;;;;9.88;2.25;;;;;;;;;;5092391;28;20032;-60
2023/06/22 01:21:00;;;;;;;2.10;1.60;;;;;;;;;;5088660;28;20028;-60
2023/06/22 01:23:38;;;;;;;3.47;1.45;;;;;;;;;;5087109;28;20036;-61
2023/06/22 01:26:05;;;;;;;3.15;2.03;;;;;;;;;;5086985;28;20173;-60
2023/06/22 01:28:32;;;;;;;2.65;1.63;;;;;;;;;;5087347;28;20024;-60
2023/06/22 01:31:05;;;;;;;2.65;1.65;;;;;;;;;;5089682;28;20027;-60
2023/06/22 01:33:36;;;;;;;2.50;1.85;;;;;;;;;;5092124;28;20039;-60
2023/06/22 01:36:03;;;;;;;2.92;1.88;;;;;;;;;;5092254;28;20012;-60
2023/06/22 01:38:30;;;;;;;6.40;2.40;;;;;;;;;;5092100;28;20020;-60
2023/06/22 01:41:00;;;;;;;2.95;2.03;;;;;;;;;;5092314;28;20024;-60
2023/06/22 01:43:27;;;;;;;4.32;1.67;;;;;;;;;;5088542;28;20386;-61
2023/06/22 01:45:55;;;;;;;12.43;2.78;;;;;;;;;;5090205;28;20506;-60
2023/06/22 01:48:22;;;;;;;4.65;2.35;;;;;;;;;;5090815;28;20486;-60
2023/06/22 01:50:49;;;;;;;3.40;2.45;;;;;;;;;;5090888;28;20031;-60
2023/06/22 01:53:16;;;;;;;4.90;2.35;;;;;;;;;;5093277;28;20053;-59
2023/06/22 01:55:43;;;;;;;8.50;1.83;;;;;;;;;;5095704;28;20035;-60
2023/06/22 01:58:10;;;;;;;2.25;1.45;;;;;;;;;;5095905;28;20034;-60
2023/06/22 02:00:38;;;;;;;3.65;1.95;;;;;;;;;;5096090;28;20020;-60
2023/06/22 02:03:20;;;;;;;4.38;2.20;;;;;;;;;;5095885;28;20075;-60
2023/06/22 02:05:59;;;;;;;4.43;1.90;;;;;;;;;;5092484;28;20076;-60
2023/06/22 02:08:29;;;;;;;8.02;1.67;;;;;;;;;;5090535;28;20020;-60
2023/06/22 02:10:56;;;;;;;2.33;1.67;;;;;;;;;;5090502;28;20028;-60
2023/06/22 02:13:25;;;;;;;3.15;2.00;;;;;;;;;;5090332;28;20374;-60
2023/06/22 02:15:52;;;;;;;4.88;2.78;;;;;;;;;;5093003;28;20021;-60
2023/06/22 02:18:20;;;;;;;3.10;1.83;;;;;;;;;;5095841;28;20016;-60
2023/06/22 02:20:47;;;;;;;4.30;2.80;;;;;;;;;;5095510;28;20455;-60
2023/06/22 02:23:14;;;;;;;2.97;2.40;;;;;;;;;;5095173;28;20032;-60
2023/06/22 02:25:44;;;;;;;3.53;1.87;;;;;;;;;;5092174;28;20032;-61
2023/06/22 02:28:10;;;;;;;4.47;2.00;;;;;;;;;;5091517;28;20059;-60
2023/06/22 02:30:38;;;;;;;2.63;1.83;;;;;;;;;;5089319;28;20016;-59
2023/06/22 02:33:04;;;;;;;3.37;2.20;;;;;;;;;;5089022;28;20042;-60
2023/06/22 02:35:31;;;;;;;3.23;2.10;;;;;;;;;;5089193;28;20030;-60
2023/06/22 02:38:00;;;;;;;3.73;2.20;;;;;;;;;;5091549;28;20043;-60
2023/06/22 02:40:29;;;;;;;3.33;2.10;;;;;;;;;;5094847;28;20035;-60
2023/06/22 02:42:58;;;;;;;4.27;2.67;;;;;;;;;;5094843;28;20437;-60
2023/06/22 02:45:25;;;;;;;4.70;2.63;;;;;;;;;;5094131;28;20494;-60
2023/06/22 02:47:53;;;;;;;3.13;2.17;;;;;;;;;;5094011;28;20470;-59
2023/06/22 02:50:20;;;;;;;4.13;2.90;;;;;;;;;;5092380;28;20471;-60
2023/06/22 02:52:47;;;;;;;3.50;2.50;;;;;;;;;;5089953;28;20028;-61
2023/06/22 02:55:14;;;;;;;3.87;2.20;;;;;;;;;;5089752;28;20044;-60
2023/06/22 02:57:43;;;;;;;6.07;2.97;;;;;;;;;;5089029;28;20028;-60
2023/06/22 03:00:20;;;;;;;3.07;2.27;;;;;;;;;;5084279;28;20024;-60
2023/06/22 03:02:47;;;;;;;3.27;2.57;;;;;;;;;;5093896;28;20032;-60
2023/06/22 03:05:17;;;;;;;2.60;2.00;;;;;;;;;;5093423;28;20020;-59
2023/06/22 03:07:45;;;;;;;4.50;3.13;;;;;;;;;;5094119;28;20096;-58
2023/06/22 03:10:12;;;;;;;5.67;3.23;;;;;;;;;;5094573;28;20109;-58
2023/06/22 03:12:39;;;;;;;4.40;2.30;;;;;;;;;;5091975;28;20059;-59
2023/06/22 03:15:07;;;;;;;4.53;2.53;;;;;;;;;;5088412;28;20058;-59
2023/06/22 03:17:34;;;;;;;5.83;2.60;;;;;;;;;;5085569;28;20536;-59
2023/06/22 03:20:08;;;;;;;15.67;2.87;;;;;;;;;;5084489;28;20106;-59
2023/06/22 03:22:36;;;;;;;5.47;2.77;;;;;;;;;;5070518;28;20049;-59
2023/06/22 03:25:02;;;;;;;9.83;2.73;;;;;;;;;;5073718;28;20261;-60
2023/06/22 03:27:29;;;;;;;2.80;2.07;;;;;;;;;;5085266;28;20028;-59
2023/06/22 03:29:57;;;;;;;4.10;2.80;;;;;;;;;;5094007;28;20032;-59
2023/06/22 03:32:27;;;;;;;5.03;2.80;;;;;;;;;;5086292;28;20155;-59
2023/06/22 03:34:58;;;;;;;4.50;2.03;;;;;;;;;;5091811;28;20032;-59
2023/06/22 03:37:29;;;;;;;2.30;1.90;;;;;;;;;;5088774;28;20050;-59
2023/06/22 03:39:55;;;;;;;2.90;2.17;;;;;;;;;;5088399;28;20099;-59
2023/06/22 03:42:22;;;;;;;4.70;3.10;;;;;;;;;;5088660;28;20044;-58
2023/06/22 03:44:49;;;;;;;4.07;2.90;;;;;;;;;;5090171;28;20360;-58
2023/06/22 03:47:16;;;;;;;5.13;2.80;;;;;;;;;;5093984;28;20028;-58
2023/06/22 03:49:43;;;;;;;3.87;2.37;;;;;;;;;;5094173;28;20043;-59
2023/06/22 03:52:10;;;;;;;7.33;2.17;;;;;;;;;;5093482;28;20035;-58
2023/06/22 03:54:41;;;;;;;4.00;2.40;;;;;;;;;;5093880;28;20024;-59
2023/06/22 03:57:07;;;;;;;8.57;2.60;;;;;;;;;;5091481;28;20467;-59
2023/06/22 03:59:35;;;;;;;5.27;2.57;;;;;;;;;;5088367;28;20016;-59
2023/06/22 04:02:01;;;;;;;4.30;2.80;;;;;;;;;;5088449;28;20043;-58
2023/06/22 04:04:28;;;;;;;5.67;3.03;;;;;;;;;;5088492;28;20537;-58
2023/06/22 04:06:55;;;;;;;4.47;3.43;;;;;;;;;;5089021;28;20051;-59
2023/06/22 04:09:22;;;;;;;11.80;4.03;;;;;;;;;;5092334;28;20031;-58
2023/06/22 04:11:49;;;;;;;3.10;2.47;;;;;;;;;;5093247;28;20059;-59
2023/06/22 04:14:15;;;;;;;5.43;2.47;;;;;;;;;;5093240;28;20047;-58
2023/06/22 04:16:42;;;;;;;4.27;3.03;;;;;;;;;;5092969;28;20086;-59
2023/06/22 04:19:15;;;;;;;5.27;2.83;;;;;;;;;;5092681;28;20024;-58
2023/06/22 04:21:44;;;;;;;4.73;3.43;;;;;;;;;;5087701;28;20483;-59
2023/06/22 04:24:11;;;;;;;7.23;3.37;;;;;;;;;;5088004;28;20095;-59
2023/06/22 04:26:41;;;;;;;7.03;3.93;;;;;;;;;;5088006;28;20356;-59
2023/06/22 04:29:08;;;;;;;4.27;2.80;;;;;;;;;;5088057;28;20131;-59
2023/06/22 04:31:39;;;;;;;8.90;3.93;;;;;;;;;;5092740;28;20054;-61
2023/06/22 04:34:16;;;;;;;4.40;3.17;;;;;;;;;;5093108;28;20024;-58
2023/06/22 04:36:53;;;;;;;5.90;3.07;;;;;;;;;;5092509;28;20051;-58
2023/06/22 04:39:20;;;;;;;10.63;3.70;;;;;;;;;;5092584;28;20381;-59
2023/06/22 04:41:47;;;;;;;11.57;2.63;;;;;;;;;;5091434;28;20505;-59
2023/06/22 04:44:23;;;;;;;8.70;3.37;;;;;;;;;;5087232;28;20034;-59
2023/06/22 04:46:53;;;;;;;4.00;2.37;;;;;;;;;;5087770;28;20510;-58
2023/06/22 04:49:21;;;;;;;5.87;3.10;;;;;;;;;;5087647;28;20028;-59
2023/06/22 04:51:47;;;;;;;6.20;3.63;;;;;;;;;;5088237;28;20020;-58
2023/06/22 04:54:14;;;;;;;3.97;2.50;;;;;;;;;;5092797;28;20073;-58
2023/06/22 04:56:41;;;;;;;6.80;3.93;;;;;;;;;;5092513;28;20024;-58
2023/06/22 04:59:08;;;;;;;6.60;4.07;;;;;;;;;;5092258;28;20390;-59
2023/06/22 05:01:35;;;;;;;4.83;3.80;;;;;;;;;;5091057;28;20032;-59
2023/06/22 05:04:02;;;;;;;7.07;4.03;;;;;;;;;;5089266;28;20502;-58
2023/06/22 05:06:29;;;;;;;4.83;2.40;;;;;;;;;;5087269;28;20019;-58
2023/06/22 05:08:59;;;;;;;3.00;2.20;;;;;;;;;;5073450;28;20113;-58
2023/06/22 05:11:29;;;;;;;7.77;3.20;;;;;;;;;;5079538;28;20020;-58
2023/06/22 05:14:02;;;;;;;6.97;3.23;;;;;;;;;;5087605;28;20028;-58
2023/06/22 05:16:29;;;;;;;4.93;3.80;;;;;;;;;;5092464;28;20500;-58
2023/06/22 05:18:56;;;;;;;3.97;3.03;;;;;;;;;;5092355;28;20028;-57
2023/06/22 05:21:27;;;;;;;3.23;2.47;;;;;;;;;;5092150;28;20016;-58
2023/06/22 05:23:55;;;;;;;4.60;3.30;;;;;;;;;;5092128;28;20334;-58
2023/06/22 05:26:22;;;;;;;4.77;2.70;;;;;;;;;;5091306;28;20429;-58
2023/06/22 05:28:49;;;;;;;5.10;4.00;;;;;;;;;;5086825;28;20386;-58
2023/06/22 05:31:17;;;;;;;12.40;3.87;;;;;;;;;;5087170;28;20029;-57
2023/06/22 05:33:44;;;;;;;7.50;3.43;;;;;;;;;;5086988;28;20768;-57
2023/06/22 05:36:12;;;;;;;6.60;3.87;;;;;;;;;;5086818;28;20032;-58
2023/06/22 05:38:39;;;;;;;5.10;2.67;;;;;;;;;;5091982;28;20039;-58
2023/06/22 05:41:06;;;;;;;5.67;3.63;;;;;;;;;;5091638;28;20039;-58
2023/06/22 05:43:33;;;;;;;6.30;3.43;;;;;;;;;;5092288;28;20115;-58
2023/06/22 05:46:01;;;;;;;4.77;3.70;;;;;;;;;;5091845;28;20061;-58
2023/06/22 05:48:28;;;;;;;4.30;3.10;;;;;;;;;;5092148;28;20022;-58
2023/06/22 05:50:55;;;;;;;6.63;4.00;;;;;;;;;;5086986;28;20476;-58
2023/06/22 05:53:22;;;;;;;6.00;4.57;;;;;;;;;;5087083;28;20212;-58
2023/06/22 05:55:48;;;;;;;4.83;3.43;;;;;;;;;;5086411;28;20063;-58
2023/06/22 05:58:15;;;;;;;4.83;4.07;;;;;;;;;;5086845;28;20043;-58
2023/06/22 06:00:43;;;;;;;23.60;4.17;;;;;;;;;;5091500;28;20383;-58
2023/06/22 06:03:10;;;;;;;8.77;3.87;;;;;;;;;;5091314;28;20119;-58
2023/06/22 06:05:37;;;;;;;4.90;3.83;;;;;;;;;;5091574;28;20423;-59
2023/06/22 06:08:05;;;;;;;10.47;3.63;;;;;;;;;;5091291;28;20383;-58
2023/06/22 06:10:32;;;;;;;11.70;3.77;;;;;;;;;;5085639;28;20031;-58
2023/06/22 06:13:02;;;;;;;7.17;4.40;;;;;;;;;;5075154;28;20102;-58
2023/06/22 06:15:29;;;;;;;5.00;3.93;;;;;;;;;;5086368;28;20032;-58
2023/06/22 06:17:56;;;;;;;3.07;2.67;;;;;;;;;;5080362;28;20020;-58
2023/06/22 06:20:23;;;;;;;8.63;4.13;;;;;;;;;;5086357;28;20016;-58
2023/06/22 06:22:51;;;;;;;7.90;4.87;;;;;;;;;;5090275;28;20034;-57
2023/06/22 06:25:19;;;;;;;6.37;4.47;;;;;;;;;;5076925;28;20759;-58
2023/06/22 06:27:50;;;;;;;5.13;3.50;;;;;;;;;;5078996;28;20111;-58
2023/06/22 06:30:17;;;;;;;6.50;4.47;;;;;;;;;;5091805;28;20024;-58
2023/06/22 06:32:46;;;;;;;3.07;2.70;;;;;;;;;;5094242;28;20028;-58
2023/06/22 06:35:13;;;;;;;5.37;3.63;;;;;;;;;;5090614;28;20020;-59
2023/06/22 06:37:41;;;;;;;6.83;4.60;;;;;;;;;;5089634;28;20140;-58
2023/06/22 06:40:10;;;;;;;5.53;4.43;;;;;;;;;;5089574;28;20079;-58
2023/06/22 06:42:38;;;;;;;5.87;4.20;;;;;;;;;;5089884;28;20036;-59
2023/06/22 06:45:06;;;;;;;4.97;3.93;;;;;;;;;;5093496;28;20028;-58
2023/06/22 06:47:32;;;;;;;4.63;3.87;;;;;;;;;;5095003;28;20060;-58
2023/06/22 06:49:59;;;;;;;7.40;3.67;;;;;;;;;;5094979;28;20089;-58
2023/06/22 06:52:26;;;;;;;6.53;5.20;;;;;;;;;;5094568;28;20085;-58
2023/06/22 06:54:53;;;;;;;5.67;3.37;;;;;;;;;;5094640;28;20112;-58
2023/06/22 06:57:20;;;;;;;5.90;4.13;;;;;;;;;;5091008;28;20081;-58
2023/06/22 06:59:47;;;;;;;10.03;3.73;;;;;;;;;;5089707;28;20032;-58
2023/06/22 07:02:14;;;;;;;6.47;4.70;;;;;;;;;;5089420;28;20028;-58
2023/06/22 07:04:41;;;;;;;4.20;3.43;;;;;;;;;;5089224;28;20032;-58
2023/06/22 07:07:08;;;;;;;6.17;4.23;;;;;;;;;;5092129;28;20023;-58
2023/06/22 07:09:35;;;;;;;8.60;4.33;;;;;;;;;;5094698;28;20103;-58
2023/06/22 07:12:01;;;;;;;4.17;3.07;;;;;;;;;;5094186;28;20020;-58
2023/06/22 07:14:28;;;;;;;6.67;3.53;;;;;;;;;;5094713;28;20024;-58
2023/06/22 07:16:55;;;;;;;4.67;3.80;;;;;;;;;;5074530;28;20081;-58
2023/06/22 07:19:28;;;;;;;5.03;4.30;;;;;;;;;;5071378;28;20028;-58
2023/06/22 07:21:55;;;;;;;5.40;3.50;;;;;;;;;;5068949;28;20032;-59
2023/06/22 07:24:22;;;;;;;6.07;5.23;;;;;;;;;;5068773;28;20081;-58
2023/06/22 07:26:50;;;;;;;8.90;5.93;;;;;;;;;;5073601;28;20020;-58
2023/06/22 07:29:20;;;;;;;7.00;4.93;;;;;;;;;;5090984;28;20072;-58
2023/06/22 07:31:49;;;;;;;6.63;4.83;;;;;;;;;;5094357;28;20070;-58
2023/06/22 07:34:16;;;;;;;6.20;3.70;;;;;;;;;;5094139;28;20043;-58
2023/06/22 07:36:43;;;;;;;5.33;3.80;;;;;;;;;;5094066;28;20051;-59
2023/06/22 07:39:09;;;;;;;8.13;4.90;;;;;;;;;;5094001;28;20380;-59
2023/06/22 07:41:36;;;;;;;7.03;5.50;;;;;;;;;;5091136;28;20047;-58
2023/06/22 07:44:03;;;;;;;7.37;4.80;;;;;;;;;;5088433;28;20392;-58
2023/06/22 07:46:30;;;;;;;3.97;3.33;;;;;;;;;;5089261;28;20095;-58
2023/06/22 07:48:58;;;;;;;5.23;3.63;;;;;;;;;;5088430;28;20027;-58
2023/06/22 07:51:24;;;;;;;7.10;5.57;;;;;;;;;;5090358;28;20028;-58
2023/06/22 07:53:51;;;;;;;3.97;2.93;;;;;;;;;;5094014;28;20059;-58
2023/06/22 07:56:21;;;;;;;7.03;5.60;;;;;;;;;;5093786;28;20503;-58
2023/06/22 07:58:48;;;;;;;8.33;5.20;;;;;;;;;;5093384;28;20021;-58
2023/06/22 08:01:16;;;;;;;5.43;2.90;;;;;;;;;;5093458;28;20024;-58
2023/06/22 08:03:43;;;;;;;5.30;3.60;;;;;;;;;;5091772;28;20413;-58
2023/06/22 08:06:10;;;;;;;9.40;4.67;;;;;;;;;;5088258;28;20526;-58
2023/06/22 08:08:37;;;;;;;7.23;3.00;;;;;;;;;;5088242;28;20482;-58
2023/06/22 08:11:05;;;;;;;7.20;4.33;;;;;;;;;;5087901;28;20024;-58
2023/06/22 08:13:32;;;;;;;3.73;3.13;;;;;;;;;;5089545;28;20024;-58
2023/06/22 08:15:59;;;;;;;5.97;4.27;;;;;;;;;;5093455;28;20024;-58
2023/06/22 08:18:26;;;;;;;11.63;5.40;;;;;;;;;;5093139;28;20422;-58
2023/06/22 08:20:53;;;;;;;6.23;4.63;;;;;;;;;;5093296;28;20471;-58
2023/06/22 08:23:19;;;;;;;7.27;5.20;;;;;;;;;;5093210;28;20558;-58
2023/06/22 08:25:47;;;;;;;17.80;5.23;;;;;;;;;;5073983;28;20214;-58
2023/06/22 08:28:14;;;;;;;11.33;5.83;;;;;;;;;;5067459;28;20063;-58
2023/06/22 08:30:41;;;;;;;6.33;4.67;;;;;;;;;;5067205;28;20031;-58
2023/06/22 08:33:08;;;;;;;9.07;5.27;;;;;;;;;;5067291;28;20048;-59
2023/06/22 08:35:35;;;;;;;9.90;6.90;;;;;;;;;;5085996;28;20036;-58
2023/06/22 08:38:02;;;;;;;7.20;5.60;;;;;;;;;;5092888;28;20028;-58
2023/06/22 08:40:29;;;;;;;8.47;6.00;;;;;;;;;;5092622;28;20040;-58
2023/06/22 08:42:56;;;;;;;6.53;4.70;;;;;;;;;;5092720;28;20039;-58
2023/06/22 08:45:23;;;;;;;4.30;3.27;;;;;;;;;;5092961;28;20073;-58
2023/06/22 08:47:49;;;;;;;5.73;4.77;;;;;;;;;;5092300;28;20487;-58
2023/06/22 08:50:16;;;;;;;8.53;5.90;;;;;;;;;;5087139;28;20487;-59
2023/06/22 08:52:43;;;;;;;7.03;4.67;;;;;;;;;;5087406;28;20475;-58
2023/06/22 08:55:10;;;;;;;5.83;4.37;;;;;;;;;;5086519;28;20035;-58
2023/06/22 08:57:38;;;;;;;7.93;4.83;;;;;;;;;;5087332;28;20028;-59
2023/06/22 09:00:11;;;;;;;11.10;4.17;;;;;;;;;;5092514;28;20034;-58
2023/06/22 09:02:40;;;;;;;11.50;6.83;;;;;;;;;;5092523;28;20036;-58
2023/06/22 09:05:07;;;;;;;9.23;4.93;;;;;;;;;;5092209;28;20035;-58
2023/06/22 09:07:34;;;;;;;13.27;5.93;;;;;;;;;;5092407;28;20031;-58
2023/06/22 09:10:01;;;;;;;8.53;5.90;;;;;;;;;;5091849;28;20538;-58
2023/06/22 09:12:30;;;;;;;11.00;5.77;;;;;;;;;;5086943;28;20054;-58
2023/06/22 09:14:57;;;;;;;7.00;4.40;;;;;;;;;;5087159;28;20109;-58
2023/06/22 09:17:24;;;;;;;6.63;5.43;;;;;;;;;;5086668;28;20048;-58
2023/06/22 09:19:51;;;;;;;10.60;5.67;;;;;;;;;;5086760;28;20024;-58
2023/06/22 09:22:17;;;;;;;5.67;4.40;;;;;;;;;;5091781;28;20154;-58
2023/06/22 09:24:44;;;;;;;5.50;4.67;;;;;;;;;;5092282;28;20024;-58
2023/06/22 09:27:11;;;;;;;7.93;5.87;;;;;;;;;;5091643;28;20035;-58
2023/06/22 09:29:38;;;;;;;7.63;5.23;;;;;;;;;;5092132;28;20038;-58
2023/06/22 09:32:05;;;;;;;7.53;6.00;;;;;;;;;;5092281;28;20036;-58
2023/06/22 09:34:31;;;;;;;7.93;6.20;;;;;;;;;;5087156;28;20016;-58
2023/06/22 09:37:00;;;;;;;9.33;6.57;;;;;;;;;;5086759;28;20036;-58
2023/06/22 09:39:27;;;;;;;11.57;5.17;;;;;;;;;;5086408;28;20032;-58
2023/06/22 09:41:54;;;;;;;7.63;4.80;;;;;;;;;;5086491;28;20020;-58
2023/06/22 09:44:20;;;;;;;11.63;6.93;;;;;;;;;;5090504;28;20024;-58
2023/06/22 09:46:47;;;;;;;7.93;5.87;;;;;;;;;;5092095;28;20035;-58
2023/06/22 09:49:14;;;;;;;10.23;7.30;;;;;;;;;;5092065;28;20028;-58
2023/06/22 09:51:41;;;;;;;12.80;7.17;;;;;;;;;;5092092;28;20498;-58
2023/06/22 09:54:07;;;;;;;8.60;6.43;;;;;;;;;;5092157;28;20095;-58
2023/06/22 09:56:34;;;;;;;13.47;7.40;;;;;;;;;;5087604;28;20028;-58
2023/06/22 09:59:01;;;;;;;12.43;7.23;;;;;;;;;;5086437;28;20024;-58
2023/06/22 10:01:27;;;;;;;10.73;6.70;;;;;;;;;;5086242;28;20024;-58
2023/06/22 10:03:55;;;;;;;9.27;6.87;;;;;;;;;;5086086;28;20392;-58
2023/06/22 10:06:22;;;;;;;5.60;4.83;;;;;;;;;;5090458;28;20116;-58
2023/06/22 10:08:50;;;;;;;7.70;6.23;;;;;;;;;;5095732;28;20024;-58
2023/06/22 10:11:17;;;;;;;11.10;6.87;;;;;;;;;;5095971;28;20036;-58
2023/06/22 10:13:44;;;;;;;8.23;6.17;;;;;;;;;;5096075;28;20428;-58
2023/06/22 10:16:11;;;;;;;9.10;6.53;;;;;;;;;;5095392;28;20024;-58
2023/06/22 10:18:38;;;;;;;7.27;5.50;;;;;;;;;;5091625;28;20099;-58
2023/06/22 10:21:05;;;;;;;7.97;5.90;;;;;;;;;;5090334;28;20518;-58
2023/06/22 10:23:31;;;;;;;8.43;5.93;;;;;;;;;;5090202;28;20043;-57
2023/06/22 10:25:58;;;;;;;14.30;7.30;;;;;;;;;;5090284;28;20023;-58
2023/06/22 10:28:25;;;;;;;10.00;6.70;;;;;;;;;;5092714;28;20059;-58
2023/06/22 10:30:52;;;;;;;10.70;6.70;;;;;;;;;;5095419;28;20535;-58
2023/06/22 10:33:18;;;;;;;8.63;6.77;;;;;;;;;;5095378;28;20195;-58
2023/06/22 10:35:45;;;;;;;7.67;5.70;;;;;;;;;;5095072;28;20024;-59
2023/06/22 10:38:12;;;;;;;14.57;7.97;;;;;;;;;;5095380;28;20059;-58
2023/06/22 10:40:39;;;;;;;11.90;7.27;;;;;;;;;;5092286;28;20036;-58
2023/06/22 10:43:06;;;;;;;8.87;6.43;;;;;;;;;;5089517;28;20532;-58
2023/06/22 10:45:33;;;;;;;12.63;5.13;;;;;;;;;;5089761;28;20039;-58
2023/06/22 10:47:59;;;;;;;7.63;5.23;;;;;;;;;;5089738;28;20472;-59
2023/06/22 10:50:26;;;;;;;5.97;4.60;;;;;;;;;;5091260;28;20035;-58
2023/06/22 10:52:53;;;;;;;6.13;4.90;;;;;;;;;;5094965;28;20059;-58
2023/06/22 10:55:20;;;;;;;11.40;5.57;;;;;;;;;;5094766;28;20020;-58
2023/06/22 10:57:47;;;;;;;6.40;5.17;;;;;;;;;;5094983;28;20027;-58
2023/06/22 11:00:15;;;;;;;9.57;6.20;;;;;;;;;;5095341;28;20071;-57
2023/06/22 11:02:42;;;;;;;5.93;5.13;;;;;;;;;;5092466;28;20036;-58
2023/06/22 11:05:09;;;;;;;7.33;6.17;;;;;;;;;;5089461;28;20509;-58
2023/06/22 11:07:35;;;;;;;7.13;6.23;;;;;;;;;;5089068;28;20081;-58
2023/06/22 11:10:02;;;;;;;6.30;5.57;;;;;;;;;;5088989;28;20304;-58
2023/06/22 11:12:29;;;;;;;7.93;5.87;;;;;;;;;;5090054;28;20169;-58
2023/06/22 11:14:57;;;;;;;8.90;5.43;;;;;;;;;;5094746;28;20020;-57
2023/06/22 11:17:23;;;;;;;10.33;6.30;;;;;;;;;;5093833;28;20356;-58
2023/06/22 11:19:50;;;;;;;10.40;6.20;;;;;;;;;;5094259;28;20489;-58
2023/06/22 11:22:17;;;;;;;9.93;6.90;;;;;;;;;;5094470;28;20382;-57
2023/06/22 11:24:44;;;;;;;8.47;5.77;;;;;;;;;;5092749;28;20030;-58
2023/06/22 11:27:10;;;;;;;8.13;6.60;;;;;;;;;;5088794;28;20051;-58
2023/06/22 11:29:39;;;;;;;11.07;8.37;;;;;;;;;;5088423;28;20360;-58
2023/06/22 11:32:07;;;;;;;9.33;7.40;;;;;;;;;;5088420;28;20073;-57
2023/06/22 11:34:34;;;;;;;8.10;6.53;;;;;;;;;;5089402;28;20150;-58
2023/06/22 11:37:01;;;;;;;11.77;8.13;;;;;;;;;;5093955;28;20102;-58
2023/06/22 11:39:28;;;;;;;10.73;7.63;;;;;;;;;;5094017;28;20028;-58
2023/06/22 11:41:54;;;;;;;9.80;7.43;;;;;;;;;;5093566;28;20402;-58
2023/06/22 11:44:21;;;;;;;9.20;6.47;;;;;;;;;;5094072;28;20099;-58
2023/06/22 11:46:48;;;;;;;15.40;7.97;;;;;;;;;;5092515;28;20028;-58
2023/06/22 11:49:15;;;;;;;10.73;7.60;;;;;;;;;;5088434;28;20027;-58
2023/06/22 11:51:41;;;;;;;9.70;6.30;;;;;;;;;;5088631;28;20028;-58
2023/06/22 11:54:08;;;;;;;9.00;6.50;;;;;;;;;;5088539;28;20077;-58
2023/06/22 12:07:26;;;;;;;10.30;6.03;;;;;;;;;;5061590;27;2710038;-59
2023/06/22 12:09:53;;;;;;;7.93;5.63;;;;;;;;;;5125224;28;20027;-60
2023/06/22 12:12:19;;;;;;;11.17;6.80;;;;;;;;;;5124879;28;20023;-59
2023/06/22 12:14:46;;;;;;;12.57;7.80;;;;;;;;;;5124366;28;20015;-60
2023/06/22 12:17:13;;;;;;;12.33;5.60;;;;;;;;;;5124838;28;20036;-59
2023/06/22 12:19:40;;;;;;;10.37;7.13;;;;;;;;;;5129125;28;20031;-59
2023/06/22 12:22:06;;;;;;;11.40;6.63;;;;;;;;;;5130444;28;20045;-59
2023/06/22 12:24:33;;;;;;;14.27;7.87;;;;;;;;;;5130230;28;20392;-59
2023/06/22 12:27:02;;;;;;;9.80;7.57;;;;;;;;;;5130246;28;20024;-59
2023/06/22 12:29:28;;;;;;;9.30;6.97;;;;;;;;;;5130088;27;20573;-59
2023/06/22 12:31:55;;;;;;;9.33;7.47;;;;;;;;;;5124909;28;20114;-59
2023/06/22 12:34:23;;;;;;;11.67;7.63;;;;;;;;;;5124579;28;20027;-59
2023/06/22 12:36:50;;;;;;;15.07;9.20;;;;;;;;;;5124332;27;20031;-59
2023/06/22 12:39:17;;;;;;;14.60;8.23;;;;;;;;;;5124381;27;20019;-59
2023/06/22 12:41:43;;;;;;;21.50;8.73;;;;;;;;;;5128157;28;20022;-59
2023/06/22 12:44:10;;;;;;;12.70;9.37;;;;;;;;;;5129897;28;20094;-59
2023/06/22 12:46:38;;;;;;;11.93;8.47;;;;;;;;;;5129744;27;20418;-59
2023/06/22 12:49:05;;;;;;;25.73;10.10;;;;;;;;;;5129326;27;20028;-59
2023/06/22 12:51:32;;;;;;;13.20;10.60;;;;;;;;;;5129938;27;20477;-59
2023/06/22 12:53:59;;;;;;;13.37;10.57;;;;;;;;;;5125687;27;20035;-59
2023/06/22 12:56:26;;;;;;;10.50;8.93;;;;;;;;;;5124056;27;20058;-59
2023/06/22 12:58:52;;;;;;;13.47;8.90;;;;;;;;;;5124234;28;20458;-59
2023/06/22 13:01:19;;;;;;;12.43;9.00;;;;;;;;;;5124105;28;20735;-59
2023/06/22 13:03:46;;;;;;;12.07;9.97;;;;;;;;;;5127116;27;20041;-59
2023/06/22 13:06:13;;;;;;;24.00;9.80;;;;;;;;;;5128445;28;20023;-59
2023/06/22 13:08:39;;;;;;;10.77;9.13;;;;;;;;;;5115262;28;20019;-59
2023/06/22 13:11:06;;;;;;;17.50;10.30;;;;;;;;;;5115780;28;20019;-59
2023/06/22 13:13:34;;;;;;;20.33;9.63;;;;;;;;;;5115739;28;20023;-59
2023/06/22 13:16:00;;;;;;;11.13;9.17;;;;;;;;;;5112032;28;20122;-59
2023/06/22 13:18:27;;;;;;;12.90;9.53;;;;;;;;;;5109989;28;20504;-59
2023/06/22 13:20:54;;;;;;;14.43;9.30;;;;;;;;;;5110103;28;20016;-60
2023/06/22 13:23:24;;;;;;;16.00;10.77;;;;;;;;;;5109744;28;20501;-59
2023/06/22 13:25:50;;;;;;;16.07;11.13;;;;;;;;;;5112780;27;20020;-59
2023/06/22 13:28:17;;;;;;;15.80;11.03;;;;;;;;;;5115121;28;20113;-59
2023/06/22 13:30:47;;;;;;;14.80;10.47;;;;;;;;;;5115360;28;20032;-59
2023/06/22 13:33:14;;;;;;;15.77;10.93;;;;;;;;;;5115195;28;20031;-59
2023/06/22 13:35:44;;;;;;;26.87;11.10;;;;;;;;;;5115011;28;20043;-59
2023/06/22 13:38:11;;;;;;;17.83;12.70;;;;;;;;;;5112079;28;20469;-59
2023/06/22 13:40:38;;;;;;;15.57;11.93;;;;;;;;;;5108190;28;20371;-59
2023/06/22 13:43:05;;;;;;;18.17;11.90;;;;;;;;;;5108022;28;20426;-59
2023/06/22 13:45:32;;;;;;;16.27;11.53;;;;;;;;;;5108081;28;20020;-59
2023/06/22 13:47:59;;;;;;;12.53;9.70;;;;;;;;;;5109989;27;20089;-59
2023/06/22 13:50:26;;;;;;;15.07;9.20;;;;;;;;;;5113021;28;20383;-59
2023/06/22 13:52:53;;;;;;;15.40;12.47;;;;;;;;;;5112857;28;20024;-59
2023/06/22 13:55:20;;;;;;;15.33;8.77;;;;;;;;;;5112699;28;20342;-60
2023/06/22 13:57:47;;;;;;;14.33;9.77;;;;;;;;;;5113728;28;20125;-60
2023/06/22 14:00:14;;;;;;;12.50;8.63;;;;;;;;;;5112149;28;20044;-60
2023/06/22 14:02:41;;;;;;;11.97;7.97;;;;;;;;;;5075152;28;20041;-60
2023/06/22 14:05:08;;;;;;;13.50;9.37;;;;;;;;;;5068428;28;20027;-60
2023/06/22 14:07:35;;;;;;;9.83;7.90;;;;;;;;;;5068522;28;20040;-60
2023/06/22 14:10:02;;;;;;;10.87;7.57;;;;;;;;;;5069884;28;20021;-60
2023/06/22 14:12:29;;;;;;;8.67;7.43;;;;;;;;;;5073603;28;20099;-60
2023/06/22 14:14:57;;;;;;;19.27;8.30;;;;;;;;;;5073387;28;20025;-60
2023/06/22 14:17:25;;;;;;;11.50;8.40;;;;;;;;;;5073888;28;20032;-61
2023/06/22 14:19:53;;;;;;;13.47;8.63;;;;;;;;;;5072596;28;20090;-60
2023/06/22 14:22:20;;;;;;;23.83;8.27;;;;;;;;;;5071772;28;20111;-60
2023/06/22 14:24:48;;;;;;;17.20;7.70;;;;;;;;;;5068057;28;20041;-61
2023/06/22 14:27:15;;;;;;;9.60;7.53;;;;;;;;;;5068179;28;20470;-61
2023/06/22 14:29:42;;;;;;;10.93;6.97;;;;;;;;;;5067426;28;20028;-61
2023/06/22 14:32:09;;;;;;;8.47;6.70;;;;;;;;;;5068859;28;20052;-60
2023/06/22 14:34:39;;;;;;;11.77;8.13;;;;;;;;;;5073172;28;20028;-60
2023/06/22 14:37:09;;;;;;;9.47;6.63;;;;;;;;;;5071209;28;20424;-61
2023/06/22 14:39:36;;;;;;;21.47;7.67;;;;;;;;;;5072876;28;20437;-60
2023/06/22 14:42:06;;;;;;;9.37;7.00;;;;;;;;;;5072981;28;20066;-61
2023/06/22 14:44:33;;;;;;;9.03;6.73;;;;;;;;;;5070895;28;20017;-61
2023/06/22 14:46:59;;;;;;;9.83;6.77;;;;;;;;;;5067196;28;20032;-61
2023/06/22 14:49:26;;;;;;;14.23;6.20;;;;;;;;;;5067482;28;20024;-60
2023/06/22 14:51:53;;;;;;;13.57;5.40;;;;;;;;;;5067416;28;20108;-61